createdAt,value
2022-11-07T00:12:58.476Z,79.0
2022-11-07T00:26:58.523Z,81.0
2022-11-07T00:40:58.484Z,84.0
2022-11-07T00:54:58.494Z,86.0
2022-11-07T01:08:58.484Z,87.0
2022-11-07T01:22:58.525Z,88.0
2022-11-07T01:36:58.496Z,85.0
2022-11-07T01:50:58.497Z,88.0
2022-11-07T02:04:58.602Z,89.0
2022-11-07T02:18:58.837Z,90.0
2022-11-07T02:32:58.839Z,92.0
2022-11-07T02:46:58.819Z,93.0
2022-11-07T03:00:58.822Z,93.0
2022-11-07T03:14:58.825Z,93.0
2022-11-07T03:28:58.820Z,94.0
2022-11-07T03:42:58.852Z,94.0
2022-11-07T03:56:58.828Z,94.0
2022-11-07T04:10:58.849Z,94.0
2022-11-07T04:24:58.861Z,94.0
2022-11-07T04:38:58.844Z,94.0
2022-11-07T04:52:58.897Z,92.0
2022-11-07T05:06:58.858Z,94.0
2022-11-07T05:20:58.872Z,94.0
2022-11-07T05:34:58.858Z,95.0
2022-11-07T05:49:01.043Z,94.0
2022-11-07T06:03:58.888Z,95.0
2022-11-07T06:18:58.872Z,94.0
2022-11-07T06:33:58.885Z,94.0
2022-11-07T06:48:58.883Z,94.0
2022-11-07T07:03:58.880Z,94.0
2022-11-07T07:18:58.892Z,93.0
2022-11-07T07:34:58.917Z,84.0
2022-11-07T07:49:58.943Z,75.0
2022-11-07T08:04:58.923Z,74.0
2022-11-07T08:19:59.036Z,68.0
2022-11-07T08:34:59.014Z,62.0
2022-11-07T08:49:59.023Z,60.0
2022-11-07T09:04:59.041Z,58.0
2022-11-07T09:19:59.046Z,58.0
2022-11-07T09:35:03.677Z,55.0
2022-11-07T09:50:59.228Z,57.0
2022-11-07T10:05:59.231Z,57.0
2022-11-07T10:21:16.409Z,56.0
2022-11-07T10:35:59.277Z,58.0
2022-11-07T10:50:59.262Z,53.0
2022-11-07T11:05:59.255Z,54.0
2022-11-07T11:20:59.274Z,52.0
2022-11-07T11:35:59.321Z,50.0
2022-11-07T11:50:59.349Z,52.0
2022-11-07T12:05:59.442Z,51.0
2022-11-07T12:20:59.668Z,47.0
2022-11-07T12:36:59.813Z,48.0
2022-11-07T12:51:59.995Z,46.0
2022-11-07T13:07:00.001Z,45.0
2022-11-07T13:22:00.044Z,43.0
2022-11-07T13:37:00.090Z,45.0
2022-11-07T13:52:00.239Z,43.0
2022-11-07T14:07:00.190Z,44.0
2022-11-07T14:22:00.252Z,46.0
2022-11-07T14:37:00.647Z,50.0
2022-11-07T14:52:00.783Z,51.0
2022-11-07T15:07:00.862Z,54.0
2022-11-07T15:22:00.869Z,62.0
2022-11-07T15:37:00.873Z,76.0
2022-11-07T15:52:00.891Z,78.0
2022-11-07T16:08:00.906Z,83.0
2022-11-07T16:23:00.990Z,86.0
2022-11-07T16:38:01.100Z,88.0
2022-11-07T16:52:01.126Z,89.0
2022-11-07T17:06:01.158Z,88.0
2022-11-07T17:20:01.205Z,89.0
2022-11-07T17:34:01.375Z,90.0
2022-11-07T17:48:01.411Z,90.0
2022-11-07T18:02:01.453Z,91.0
2022-11-07T18:16:01.409Z,91.0
2022-11-07T18:30:02.001Z,91.0
2022-11-07T18:44:04.652Z,91.0
2022-11-07T18:58:01.637Z,91.0
2022-11-07T19:12:01.654Z,92.0
2022-11-07T19:26:02.210Z,92.0
2022-11-07T19:40:02.077Z,93.0
2022-11-07T19:54:02.033Z,93.0
2022-11-07T20:08:04.900Z,93.0
2022-11-07T20:22:02.038Z,93.0
2022-11-07T20:37:02.183Z,92.0
2022-11-07T20:51:02.270Z,92.0
2022-11-07T21:05:17.016Z,92.0
2022-11-07T21:19:02.275Z,93.0
2022-11-07T21:31:39.299Z,93.0
2022-11-07T21:45:39.152Z,94.0
2022-11-07T21:59:39.209Z,94.0
2022-11-07T22:13:39.284Z,94.0
2022-11-07T22:27:39.371Z,94.0
2022-11-07T22:41:39.434Z,95.0
2022-11-07T22:55:39.537Z,95.0
2022-11-07T23:09:39.580Z,95.0
2022-11-07T23:23:39.727Z,94.0
2022-11-07T23:37:39.698Z,94.0
2022-11-07T23:51:39.921Z,94.0
